createdAt,value
2023-01-22T00:01:31.501Z,101165.50
2023-01-22T00:06:34.516Z,101159.38
2023-01-22T00:11:37.286Z,101163.78
2023-01-22T00:16:41.731Z,101161.94
2023-01-22T00:21:44.599Z,101166.25
2023-01-22T00:26:47.441Z,101168.94
2023-01-22T00:31:51.625Z,101180.44
2023-01-22T00:36:56.102Z,101182.47
2023-01-22T00:41:59.075Z,101174.41
2023-01-22T00:47:03.210Z,101178.06
2023-01-22T00:52:06.468Z,101180.00
2023-01-22T00:57:09.239Z,101178.06
2023-01-22T01:02:13.974Z,101180.84
2023-01-22T01:07:16.714Z,101188.91
2023-01-22T01:12:20.487Z,101182.47
2023-01-22T01:17:24.600Z,101182.69
2023-01-22T01:22:27.412Z,101185.38
2023-01-22T01:27:32.440Z,101183.63
2023-01-22T01:32:36.576Z,101189.00
2023-01-22T01:37:39.353Z,101202.25
2023-01-22T01:42:43.019Z,101197.84
2023-01-22T01:47:47.155Z,101204.25
2023-01-22T01:52:49.984Z,101195.56
2023-01-22T01:57:53.394Z,101196.00
2023-01-22T02:02:57.544Z,101198.81
2023-01-22T02:08:00.441Z,101209.63
2023-01-22T02:13:06.266Z,101211.28
2023-01-22T02:18:10.387Z,101207.91
2023-01-22T02:23:14.672Z,101205.13
2023-01-22T02:28:17.587Z,101214.34
2023-01-22T02:33:20.834Z,101207.03
2023-01-22T02:38:24.995Z,101197.28
2023-01-22T02:43:27.837Z,101207.16
2023-01-22T02:48:30.684Z,101211.78
2023-01-22T02:53:35.661Z,101212.72
2023-01-22T02:58:38.493Z,101208.50
2023-01-22T03:03:41.477Z,101212.13
2023-01-22T03:08:45.720Z,101215.91
2023-01-22T03:14:05.874Z,101214.06
2023-01-22T03:19:26.472Z,101215.25
2023-01-22T03:24:30.965Z,101213.59
2023-01-22T03:29:33.844Z,101225.41
2023-01-22T03:34:37.406Z,101222.72
2023-01-22T03:39:42.985Z,101224.66
2023-01-22T03:44:50.820Z,101217.56
2023-01-22T03:49:53.841Z,101218.63
2023-01-22T03:54:58.492Z,101229.47
2023-01-22T04:00:02.157Z,101229.66
2023-01-22T04:05:15.462Z,101237.72
2023-01-22T04:10:21.729Z,101246.66
2023-01-22T04:15:25.201Z,101251.25
2023-01-22T04:20:30.510Z,101250.50
2023-01-22T04:25:53.482Z,101255.88
2023-01-22T04:30:56.514Z,101257.69
2023-01-22T04:36:27.434Z,101261.31
2023-01-22T04:41:32.893Z,101268.63
2023-01-22T04:46:35.633Z,101265.94
2023-01-22T04:51:38.462Z,101263.44
2023-01-22T04:56:42.782Z,101264.41
2023-01-22T05:01:46.177Z,101265.28
2023-01-22T05:06:49.794Z,101277.84
2023-01-22T05:11:54.281Z,101281.38
2023-01-22T05:16:57.195Z,101282.44
2023-01-22T05:22:00.472Z,101293.09
2023-01-22T05:27:04.805Z,101297.69
2023-01-22T05:32:18.509Z,101298.63
2023-01-22T05:37:27.755Z,101311.19
2023-01-22T05:42:33.015Z,101317.44
2023-01-22T05:47:36.793Z,101317.53
2023-01-22T05:53:11.832Z,101316.78
2023-01-22T05:58:16.078Z,101316.78
2023-01-22T06:03:21.500Z,101320.53
2023-01-22T06:08:27.588Z,101325.69
2023-01-22T06:13:33.141Z,101316.78
2023-01-22T06:18:44.184Z,101315.91
2023-01-22T06:23:49.275Z,101318.69
2023-01-22T06:28:55.163Z,101321.47
2023-01-22T06:33:58.462Z,101332.22
2023-01-22T06:39:01.665Z,101323.38
2023-01-22T06:44:19.735Z,101337.59
2023-01-22T06:49:22.921Z,101350.22
2023-01-22T06:54:25.682Z,101354.25
2023-01-22T06:59:30.236Z,101367.47
2023-01-22T07:04:33.244Z,101378.22
2023-01-22T07:09:36.206Z,101383.78
2023-01-22T07:14:40.380Z,101394.22
2023-01-22T07:19:43.142Z,101397.97
2023-01-22T07:24:45.935Z,101398.84
2023-01-22T07:29:50.894Z,101414.84
2023-01-22T07:34:53.679Z,101412.16
2023-01-22T07:39:56.499Z,101421.16
2023-01-22T07:45:00.671Z,101415.81
2023-01-22T07:50:03.442Z,101437.38
2023-01-22T07:55:07.488Z,101427.50
2023-01-22T08:00:13.080Z,101427.41
2023-01-22T08:05:15.979Z,101430.94
2023-01-22T08:10:19.274Z,101453.22
2023-01-22T08:15:23.556Z,101447.47
2023-01-22T08:20:26.421Z,101446.81
2023-01-22T08:25:29.425Z,101454.06
2023-01-22T08:30:38.446Z,101457.38
2023-01-22T08:35:48.032Z,101455.28
2023-01-22T08:40:51.014Z,101467.66
2023-01-22T08:45:55.198Z,101474.75
2023-01-22T08:51:00.764Z,101468.75
2023-01-22T08:56:03.905Z,101476.84
2023-01-22T09:01:08.245Z,101481.81
2023-01-22T09:06:11.478Z,101489.25
2023-01-22T09:11:14.323Z,101485.28
2023-01-22T09:16:18.722Z,101493.09
2023-01-22T09:21:21.500Z,101497.22
2023-01-22T09:26:24.357Z,101499.34
2023-01-22T09:31:28.650Z,101509.41
2023-01-22T09:36:31.679Z,101517.19
2023-01-22T09:41:35.281Z,101523.53
2023-01-22T09:46:41.530Z,101522.28
2023-01-22T09:51:45.278Z,101516.53
2023-01-22T09:56:49.926Z,101519.84
2023-01-22T10:01:55.866Z,101511.78
2023-01-22T10:06:58.924Z,101513.34
2023-01-22T10:12:06.371Z,101512.47
2023-01-22T10:17:17.582Z,101510.44
2023-01-22T10:22:22.286Z,101509.38
2023-01-22T10:27:26.820Z,101503.84
2023-01-22T10:32:31.717Z,101514.16
2023-01-22T10:37:44.153Z,101507.75
2023-01-22T10:42:47.037Z,101521.09
2023-01-22T10:47:51.205Z,101524.44
2023-01-22T10:52:55.517Z,101518.00
2023-01-22T10:58:03.011Z,101518.00
2023-01-22T11:03:15.525Z,101510.88
2023-01-22T11:08:19.909Z,101515.41
2023-01-22T11:13:24.631Z,101512.53
2023-01-22T11:18:31.310Z,101526.53
2023-01-22T11:23:37.921Z,101520.81
2023-01-22T11:28:44.027Z,101528.13
2023-01-22T11:33:56.244Z,101534.25
2023-01-22T11:39:02.356Z,101529.72
2023-01-22T11:44:29.965Z,101538.94
2023-01-22T11:49:47.457Z,101537.03
2023-01-22T11:54:57.545Z,101537.97
2023-01-22T12:00:21.213Z,101528.88
2023-01-22T12:05:32.993Z,101529.53
2023-01-22T12:10:54.799Z,101532.22
2023-01-22T12:15:59.683Z,101521.16
2023-01-22T12:21:09.047Z,101524.94
2023-01-22T12:26:14.241Z,101523.00
2023-01-22T12:31:20.094Z,101528.31
2023-01-22T12:36:24.927Z,101526.97
2023-01-22T12:41:44.268Z,101528.22
2023-01-22T12:46:54.286Z,101531.69
2023-01-22T12:51:59.794Z,101525.50
2023-01-22T12:57:13.685Z,101524.28
2023-01-22T13:02:36.476Z,101522.06
2023-01-22T13:07:40.956Z,101517.81
2023-01-22T13:12:46.932Z,101530.03
2023-01-22T13:18:06.119Z,101527.72
2023-01-22T13:23:13.312Z,101534.69
2023-01-22T13:28:17.487Z,101537.31
2023-01-22T13:33:20.371Z,101552.00
2023-01-22T13:38:25.966Z,101553.41
2023-01-22T13:43:28.915Z,101553.97
2023-01-22T13:48:31.714Z,101558.28
2023-01-22T13:53:39.656Z,101526.69
2023-01-22T13:58:48.237Z,101559.78
2023-01-22T14:03:59.233Z,101558.66
2023-01-22T14:09:03.445Z,101559.59
2023-01-22T14:14:14.848Z,101568.44
2023-01-22T14:19:17.927Z,101579.00
2023-01-22T14:24:22.051Z,101570.81
2023-01-22T14:29:24.881Z,101574.94
2023-01-22T14:34:27.834Z,101576.66
2023-01-22T14:39:34.345Z,101575.69
2023-01-22T14:44:37.233Z,101574.81
2023-01-22T14:49:40.650Z,101581.94
2023-01-22T14:54:44.765Z,101584.53
2023-01-22T14:59:47.501Z,101579.13
2023-01-22T15:04:50.350Z,101588.00
2023-01-22T15:09:54.713Z,101581.66
2023-01-22T15:14:57.540Z,101583.78
2023-01-22T15:20:00.330Z,101590.88
2023-01-22T15:25:04.856Z,101596.09
2023-01-22T15:30:08.791Z,101592.72
2023-01-22T15:35:11.626Z,101608.00
2023-01-22T15:40:16.565Z,101607.72
2023-01-22T15:45:19.429Z,101611.28
2023-01-22T15:50:22.330Z,101610.09
2023-01-22T15:55:26.756Z,101616.22
2023-01-22T16:00:29.567Z,101611.53
2023-01-22T16:05:32.307Z,101624.97
2023-01-22T16:10:36.539Z,101623.25
2023-01-22T16:15:39.524Z,101615.47
2023-01-22T16:20:42.362Z,101626.81
2023-01-22T16:25:46.671Z,101627.69
2023-01-22T16:30:49.617Z,101638.03
2023-01-22T16:35:59.313Z,101635.28
2023-01-22T16:41:24.968Z,101644.28
2023-01-22T16:46:29.000Z,101653.94
2023-01-22T16:51:35.015Z,101661.66
2023-01-22T16:56:39.175Z,101668.41
2023-01-22T17:01:42.032Z,101661.22
2023-01-22T17:06:45.898Z,101672.50
2023-01-22T17:11:51.872Z,101678.63
2023-01-22T17:16:54.715Z,101682.28
2023-01-22T17:21:58.869Z,101674.53
2023-01-22T17:27:03.863Z,101690.19
2023-01-22T17:32:07.558Z,101687.84
2023-01-22T17:37:11.201Z,101684.22
2023-01-22T17:42:15.534Z,101695.84
2023-01-22T17:47:18.594Z,101705.16
2023-01-22T17:52:23.328Z,101711.84
2023-01-22T17:57:27.459Z,101708.03
2023-01-22T18:02:31.375Z,101713.41
2023-01-22T18:07:35.292Z,101719.66
2023-01-22T18:12:39.690Z,101714.53
2023-01-22T18:17:42.571Z,101725.59
2023-01-22T18:22:45.340Z,101722.13
2023-01-22T18:27:49.686Z,101726.56
2023-01-22T18:32:52.471Z,101728.09
2023-01-22T18:37:57.845Z,101725.97
2023-01-22T18:43:01.983Z,101734.69
2023-01-22T18:48:05.548Z,101736.72
2023-01-22T18:53:09.520Z,101745.66
2023-01-22T18:58:27.260Z,101746.41
2023-01-22T19:03:30.679Z,101752.75
2023-01-22T19:08:34.822Z,101757.59
2023-01-22T19:13:39.583Z,101759.03
2023-01-22T19:18:43.868Z,101760.88
2023-01-22T19:23:46.856Z,101768.84
2023-01-22T19:28:53.117Z,101779.50
2023-01-22T19:33:56.251Z,101777.88
2023-01-22T19:38:59.950Z,101788.44
2023-01-22T19:44:04.118Z,101791.28
2023-01-22T19:49:06.970Z,101793.59
2023-01-22T19:54:10.278Z,101794.66
2023-01-22T19:59:15.521Z,101798.22
2023-01-22T20:04:20.618Z,101798.28
2023-01-22T20:09:23.516Z,101792.25
2023-01-22T20:14:30.826Z,101805.59
2023-01-22T20:19:33.771Z,101815.38
2023-01-22T20:24:37.495Z,101805.78
2023-01-22T20:29:41.779Z,101819.13
2023-01-22T20:34:48.791Z,101819.22
2023-01-22T20:39:51.693Z,101826.53
2023-01-22T20:44:58.219Z,101830.25
2023-01-22T20:50:01.021Z,101829.13
2023-01-22T20:55:03.897Z,101835.56
2023-01-22T21:00:09.587Z,101834.75
2023-01-22T21:05:12.425Z,101830.44
2023-01-22T21:10:15.364Z,101828.72
2023-01-22T21:15:19.675Z,101835.72
2023-01-22T21:20:22.679Z,101838.50
2023-01-22T21:25:25.646Z,101825.41
2023-01-22T21:30:30.459Z,101847.44
2023-01-22T21:35:33.317Z,101856.47
2023-01-22T21:40:36.265Z,101852.91
2023-01-22T21:45:59.475Z,101862.81
2023-01-22T21:51:03.029Z,101861.16
2023-01-22T21:56:06.736Z,101876.16
2023-01-22T22:01:10.939Z,101879.81
2023-01-22T22:06:14.168Z,101884.50
2023-01-22T22:11:17.019Z,101889.25
2023-01-22T22:16:21.316Z,101892.03
2023-01-22T22:21:24.071Z,101896.75
2023-01-22T22:26:26.861Z,101902.19
2023-01-22T22:31:31.047Z,101910.34
2023-01-22T22:36:34.000Z,101915.03
2023-01-22T22:41:38.409Z,101900.38
2023-01-22T22:46:42.623Z,101916.94
2023-01-22T22:51:45.459Z,101918.69
2023-01-22T22:56:49.123Z,101921.28
2023-01-22T23:01:53.398Z,101922.06
2023-01-22T23:06:56.349Z,101922.06
2023-01-22T23:11:59.393Z,101919.47
2023-01-22T23:17:04.668Z,101920.94
2023-01-22T23:22:07.576Z,101934.78
2023-01-22T23:27:10.580Z,101928.19
2023-01-22T23:32:14.709Z,101930.88
2023-01-22T23:37:17.573Z,101933.09
2023-01-22T23:42:20.359Z,101935.22
2023-01-22T23:47:26.942Z,101939.25
2023-01-22T23:52:29.758Z,101944.69
2023-01-22T23:57:32.508Z,101942.69
